sensor_id;sensor_type;location;lat;lon;timestamp;P1;durP1;ratioP1;P2;durP2;ratioP2
23394;SDS011;11870;53.084;18.206;2024-01-10T00:01:34;71.47;;;29.60;;
23394;SDS011;11870;53.084;18.206;2024-01-10T00:04:02;66.10;;;27.50;;
23394;SDS011;11870;53.084;18.206;2024-01-10T00:06:35;64.68;;;26.42;;
23394;SDS011;11870;53.084;18.206;2024-01-10T00:09:02;68.45;;;27.83;;
23394;SDS011;11870;53.084;18.206;2024-01-10T00:11:29;61.10;;;24.77;;
23394;SDS011;11870;53.084;18.206;2024-01-10T00:13:57;67.60;;;24.65;;
23394;SDS011;11870;53.084;18.206;2024-01-10T00:16:26;60.78;;;25.88;;
23394;SDS011;11870;53.084;18.206;2024-01-10T00:18:52;62.63;;;24.63;;
23394;SDS011;11870;53.084;18.206;2024-01-10T00:21:20;67.93;;;26.42;;
23394;SDS011;11870;53.084;18.206;2024-01-10T00:23:47;65.25;;;26.90;;
23394;SDS011;11870;53.084;18.206;2024-01-10T00:26:14;67.75;;;26.48;;
23394;SDS011;11870;53.084;18.206;2024-01-10T00:28:45;75.93;;;28.25;;
23394;SDS011;11870;53.084;18.206;2024-01-10T00:31:14;71.15;;;28.55;;
23394;SDS011;11870;53.084;18.206;2024-01-10T00:33:40;66.03;;;27.05;;
23394;SDS011;11870;53.084;18.206;2024-01-10T00:36:07;60.63;;;24.67;;
23394;SDS011;11870;53.084;18.206;2024-01-10T00:38:36;65.50;;;25.23;;
23394;SDS011;11870;53.084;18.206;2024-01-10T00:41:04;65.05;;;26.13;;
23394;SDS011;11870;53.084;18.206;2024-01-10T00:43:31;62.10;;;25.88;;
23394;SDS011;11870;53.084;18.206;2024-01-10T00:45:59;58.08;;;25.05;;
23394;SDS011;11870;53.084;18.206;2024-01-10T00:48:26;61.15;;;26.70;;
23394;SDS011;11870;53.084;18.206;2024-01-10T00:50:54;65.95;;;24.15;;
23394;SDS011;11870;53.084;18.206;2024-01-10T00:53:21;55.47;;;22.25;;
23394;SDS011;11870;53.084;18.206;2024-01-10T00:55:49;62.72;;;22.10;;
23394;SDS011;11870;53.084;18.206;2024-01-10T00:58:15;50.47;;;21.02;;
23394;SDS011;11870;53.084;18.206;2024-01-10T01:00:42;56.30;;;21.30;;
23394;SDS011;11870;53.084;18.206;2024-01-10T01:03:09;57.22;;;21.55;;
23394;SDS011;11870;53.084;18.206;2024-01-10T01:05:38;59.22;;;21.75;;
23394;SDS011;11870;53.084;18.206;2024-01-10T01:08:05;49.92;;;20.05;;
23394;SDS011;11870;53.084;18.206;2024-01-10T01:10:33;51.67;;;20.67;;
23394;SDS011;11870;53.084;18.206;2024-01-10T01:13:01;52.05;;;20.00;;
23394;SDS011;11870;53.084;18.206;2024-01-10T01:15:29;51.20;;;20.70;;
23394;SDS011;11870;53.084;18.206;2024-01-10T01:17:55;48.72;;;20.73;;
23394;SDS011;11870;53.084;18.206;2024-01-10T01:20:23;48.03;;;18.83;;
23394;SDS011;11870;53.084;18.206;2024-01-10T01:22:52;49.60;;;20.17;;
23394;SDS011;11870;53.084;18.206;2024-01-10T01:25:19;55.42;;;24.25;;
23394;SDS011;11870;53.084;18.206;2024-01-10T01:27:55;49.25;;;20.13;;
23394;SDS011;11870;53.084;18.206;2024-01-10T01:30:25;48.70;;;19.48;;
23394;SDS011;11870;53.084;18.206;2024-01-10T01:32:52;51.38;;;20.40;;
23394;SDS011;11870;53.084;18.206;2024-01-10T01:35:26;49.83;;;20.38;;
23394;SDS011;11870;53.084;18.206;2024-01-10T01:37:53;49.55;;;19.48;;
23394;SDS011;11870;53.084;18.206;2024-01-10T01:40:23;51.65;;;20.83;;
23394;SDS011;11870;53.084;18.206;2024-01-10T01:42:49;47.58;;;20.35;;
23394;SDS011;11870;53.084;18.206;2024-01-10T01:45:19;49.53;;;20.75;;
23394;SDS011;11870;53.084;18.206;2024-01-10T01:47:50;49.63;;;20.08;;
23394;SDS011;11870;53.084;18.206;2024-01-10T01:50:18;44.05;;;19.25;;
23394;SDS011;11870;53.084;18.206;2024-01-10T01:52:46;47.78;;;20.00;;
23394;SDS011;11870;53.084;18.206;2024-01-10T01:55:14;48.47;;;20.35;;
23394;SDS011;11870;53.084;18.206;2024-01-10T01:57:40;51.10;;;20.13;;
23394;SDS011;11870;53.084;18.206;2024-01-10T02:00:11;49.67;;;21.05;;
23394;SDS011;11870;53.084;18.206;2024-01-10T02:02:38;50.13;;;21.05;;
23394;SDS011;11870;53.084;18.206;2024-01-10T02:05:07;46.60;;;20.70;;
23394;SDS011;11870;53.084;18.206;2024-01-10T02:07:34;51.33;;;20.48;;
23394;SDS011;11870;53.084;18.206;2024-01-10T02:10:07;46.90;;;20.45;;
23394;SDS011;11870;53.084;18.206;2024-01-10T02:12:37;50.13;;;19.90;;
23394;SDS011;11870;53.084;18.206;2024-01-10T02:15:05;52.45;;;20.23;;
23394;SDS011;11870;53.084;18.206;2024-01-10T02:17:32;46.72;;;19.63;;
23394;SDS011;11870;53.084;18.206;2024-01-10T02:20:12;43.40;;;18.15;;
23394;SDS011;11870;53.084;18.206;2024-01-10T02:22:42;48.85;;;18.92;;
23394;SDS011;11870;53.084;18.206;2024-01-10T02:25:14;50.15;;;17.92;;
23394;SDS011;11870;53.084;18.206;2024-01-10T02:27:43;40.35;;;18.50;;
23394;SDS011;11870;53.084;18.206;2024-01-10T02:30:13;46.03;;;18.83;;
23394;SDS011;11870;53.084;18.206;2024-01-10T02:32:40;44.58;;;18.45;;
23394;SDS011;11870;53.084;18.206;2024-01-10T02:35:09;39.70;;;16.48;;
23394;SDS011;11870;53.084;18.206;2024-01-10T02:37:39;43.13;;;17.27;;
23394;SDS011;11870;53.084;18.206;2024-01-10T02:40:07;39.97;;;17.10;;
23394;SDS011;11870;53.084;18.206;2024-01-10T02:42:35;40.20;;;15.77;;
23394;SDS011;11870;53.084;18.206;2024-01-10T02:45:05;44.25;;;16.65;;
23394;SDS011;11870;53.084;18.206;2024-01-10T02:47:35;39.33;;;16.60;;
23394;SDS011;11870;53.084;18.206;2024-01-10T02:50:05;39.83;;;15.88;;
23394;SDS011;11870;53.084;18.206;2024-01-10T02:52:33;38.40;;;14.13;;
23394;SDS011;11870;53.084;18.206;2024-01-10T02:55:03;33.35;;;14.80;;
23394;SDS011;11870;53.084;18.206;2024-01-10T02:57:31;37.95;;;15.98;;
23394;SDS011;11870;53.084;18.206;2024-01-10T02:59:58;33.60;;;14.50;;
23394;SDS011;11870;53.084;18.206;2024-01-10T03:02:25;42.17;;;15.80;;
23394;SDS011;11870;53.084;18.206;2024-01-10T03:04:52;43.85;;;15.63;;
23394;SDS011;11870;53.084;18.206;2024-01-10T03:07:22;40.67;;;15.52;;
23394;SDS011;11870;53.084;18.206;2024-01-10T03:09:58;43.72;;;16.05;;
23394;SDS011;11870;53.084;18.206;2024-01-10T03:12:25;39.35;;;15.15;;
23394;SDS011;11870;53.084;18.206;2024-01-10T03:14:53;40.80;;;14.48;;
23394;SDS011;11870;53.084;18.206;2024-01-10T03:17:24;33.58;;;14.52;;
23394;SDS011;11870;53.084;18.206;2024-01-10T03:19:51;41.03;;;15.52;;
23394;SDS011;11870;53.084;18.206;2024-01-10T03:22:17;37.38;;;14.35;;
23394;SDS011;11870;53.084;18.206;2024-01-10T03:24:45;38.78;;;14.82;;
23394;SDS011;11870;53.084;18.206;2024-01-10T03:27:13;41.42;;;15.35;;
23394;SDS011;11870;53.084;18.206;2024-01-10T03:29:40;45.45;;;15.30;;
23394;SDS011;11870;53.084;18.206;2024-01-10T03:32:08;38.95;;;15.23;;
23394;SDS011;11870;53.084;18.206;2024-01-10T03:34:41;35.50;;;15.70;;
23394;SDS011;11870;53.084;18.206;2024-01-10T03:37:11;35.40;;;14.18;;
23394;SDS011;11870;53.084;18.206;2024-01-10T03:39:39;49.30;;;19.42;;
23394;SDS011;11870;53.084;18.206;2024-01-10T03:42:07;58.45;;;23.08;;
23394;SDS011;11870;53.084;18.206;2024-01-10T03:44:36;67.65;;;24.40;;
23394;SDS011;11870;53.084;18.206;2024-01-10T03:47:05;65.80;;;24.10;;
23394;SDS011;11870;53.084;18.206;2024-01-10T03:49:33;69.93;;;23.83;;
23394;SDS011;11870;53.084;18.206;2024-01-10T03:51:59;68.00;;;25.85;;
23394;SDS011;11870;53.084;18.206;2024-01-10T03:54:26;72.97;;;24.70;;
23394;SDS011;11870;53.084;18.206;2024-01-10T03:56:55;77.32;;;26.70;;
23394;SDS011;11870;53.084;18.206;2024-01-10T03:59:22;71.45;;;25.77;;
23394;SDS011;11870;53.084;18.206;2024-01-10T04:01:52;65.65;;;24.20;;
23394;SDS011;11870;53.084;18.206;2024-01-10T04:04:21;80.15;;;25.88;;
23394;SDS011;11870;53.084;18.206;2024-01-10T04:06:51;74.40;;;26.13;;
23394;SDS011;11870;53.084;18.206;2024-01-10T04:09:19;69.78;;;25.80;;
23394;SDS011;11870;53.084;18.206;2024-01-10T04:11:48;83.57;;;27.48;;
23394;SDS011;11870;53.084;18.206;2024-01-10T04:14:16;83.22;;;28.23;;
23394;SDS011;11870;53.084;18.206;2024-01-10T04:16:44;84.00;;;28.65;;
23394;SDS011;11870;53.084;18.206;2024-01-10T04:19:15;80.80;;;26.63;;
23394;SDS011;11870;53.084;18.206;2024-01-10T04:21:45;80.00;;;27.58;;
23394;SDS011;11870;53.084;18.206;2024-01-10T04:24:15;68.07;;;25.00;;
23394;SDS011;11870;53.084;18.206;2024-01-10T04:26:43;75.90;;;25.67;;
23394;SDS011;11870;53.084;18.206;2024-01-10T04:29:11;84.40;;;28.65;;
23394;SDS011;11870;53.084;18.206;2024-01-10T04:31:42;79.32;;;28.40;;
23394;SDS011;11870;53.084;18.206;2024-01-10T04:34:10;78.70;;;28.80;;
23394;SDS011;11870;53.084;18.206;2024-01-10T04:36:41;92.85;;;28.40;;
23394;SDS011;11870;53.084;18.206;2024-01-10T04:39:12;88.75;;;28.77;;
23394;SDS011;11870;53.084;18.206;2024-01-10T04:41:42;93.70;;;29.88;;
23394;SDS011;11870;53.084;18.206;2024-01-10T04:44:09;85.35;;;27.73;;
23394;SDS011;11870;53.084;18.206;2024-01-10T04:46:36;77.00;;;27.60;;
23394;SDS011;11870;53.084;18.206;2024-01-10T04:49:07;83.80;;;28.30;;
23394;SDS011;11870;53.084;18.206;2024-01-10T04:51:38;89.00;;;28.23;;
23394;SDS011;11870;53.084;18.206;2024-01-10T04:54:10;81.72;;;29.10;;
23394;SDS011;11870;53.084;18.206;2024-01-10T04:56:43;74.88;;;27.67;;
23394;SDS011;11870;53.084;18.206;2024-01-10T04:59:17;83.45;;;29.23;;
23394;SDS011;11870;53.084;18.206;2024-01-10T05:01:52;81.13;;;27.88;;
23394;SDS011;11870;53.084;18.206;2024-01-10T05:04:19;78.63;;;26.73;;
23394;SDS011;11870;53.084;18.206;2024-01-10T05:06:59;91.32;;;29.25;;
23394;SDS011;11870;53.084;18.206;2024-01-10T05:09:31;84.85;;;30.42;;
23394;SDS011;11870;53.084;18.206;2024-01-10T05:12:00;80.50;;;27.83;;
23394;SDS011;11870;53.084;18.206;2024-01-10T05:14:36;92.97;;;30.27;;
23394;SDS011;11870;53.084;18.206;2024-01-10T05:17:04;87.90;;;29.40;;
23394;SDS011;11870;53.084;18.206;2024-01-10T05:19:46;81.20;;;28.08;;
23394;SDS011;11870;53.084;18.206;2024-01-10T05:22:25;88.80;;;29.27;;
23394;SDS011;11870;53.084;18.206;2024-01-10T05:24:53;85.55;;;29.23;;
23394;SDS011;11870;53.084;18.206;2024-01-10T05:27:32;86.68;;;29.05;;
23394;SDS011;11870;53.084;18.206;2024-01-10T05:30:07;83.13;;;29.10;;
23394;SDS011;11870;53.084;18.206;2024-01-10T05:32:43;86.22;;;28.35;;
23394;SDS011;11870;53.084;18.206;2024-01-10T05:35:17;77.93;;;28.38;;
23394;SDS011;11870;53.084;18.206;2024-01-10T05:38:00;84.22;;;29.52;;
23394;SDS011;11870;53.084;18.206;2024-01-10T05:40:29;79.45;;;27.45;;
23394;SDS011;11870;53.084;18.206;2024-01-10T05:42:57;83.47;;;28.42;;
23394;SDS011;11870;53.084;18.206;2024-01-10T05:45:26;92.20;;;30.38;;
23394;SDS011;11870;53.084;18.206;2024-01-10T05:47:53;80.97;;;28.42;;
23394;SDS011;11870;53.084;18.206;2024-01-10T05:50:20;85.47;;;27.50;;
23394;SDS011;11870;53.084;18.206;2024-01-10T05:52:46;76.72;;;26.75;;
23394;SDS011;11870;53.084;18.206;2024-01-10T05:55:12;76.05;;;26.85;;
23394;SDS011;11870;53.084;18.206;2024-01-10T05:57:39;69.10;;;26.33;;
23394;SDS011;11870;53.084;18.206;2024-01-10T06:00:05;76.63;;;25.15;;
23394;SDS011;11870;53.084;18.206;2024-01-10T06:02:36;71.75;;;24.63;;
23394;SDS011;11870;53.084;18.206;2024-01-10T06:05:06;79.13;;;26.13;;
23394;SDS011;11870;53.084;18.206;2024-01-10T06:07:37;78.60;;;25.00;;
23394;SDS011;11870;53.084;18.206;2024-01-10T06:10:04;65.88;;;22.83;;
23394;SDS011;11870;53.084;18.206;2024-01-10T06:12:31;70.53;;;23.98;;
23394;SDS011;11870;53.084;18.206;2024-01-10T06:14:57;77.47;;;24.40;;
23394;SDS011;11870;53.084;18.206;2024-01-10T06:17:23;60.67;;;21.95;;
23394;SDS011;11870;53.084;18.206;2024-01-10T06:19:49;68.43;;;24.63;;
23394;SDS011;11870;53.084;18.206;2024-01-10T06:22:16;68.00;;;22.80;;
23394;SDS011;11870;53.084;18.206;2024-01-10T06:24:42;70.38;;;22.63;;
23394;SDS011;11870;53.084;18.206;2024-01-10T06:27:09;76.43;;;24.50;;
23394;SDS011;11870;53.084;18.206;2024-01-10T06:29:36;69.70;;;25.02;;
23394;SDS011;11870;53.084;18.206;2024-01-10T06:32:03;86.18;;;25.92;;
23394;SDS011;11870;53.084;18.206;2024-01-10T06:34:31;72.57;;;25.52;;
23394;SDS011;11870;53.084;18.206;2024-01-10T06:36:58;77.05;;;25.55;;
23394;SDS011;11870;53.084;18.206;2024-01-10T06:39:24;74.55;;;27.33;;
23394;SDS011;11870;53.084;18.206;2024-01-10T06:41:50;76.18;;;24.92;;
23394;SDS011;11870;53.084;18.206;2024-01-10T06:44:16;76.57;;;25.00;;
23394;SDS011;11870;53.084;18.206;2024-01-10T06:46:45;75.85;;;24.67;;
23394;SDS011;11870;53.084;18.206;2024-01-10T06:49:11;74.38;;;24.63;;
23394;SDS011;11870;53.084;18.206;2024-01-10T06:51:38;82.70;;;27.00;;
23394;SDS011;11870;53.084;18.206;2024-01-10T06:54:03;74.32;;;24.67;;
23394;SDS011;11870;53.084;18.206;2024-01-10T06:56:31;86.07;;;25.55;;
23394;SDS011;11870;53.084;18.206;2024-01-10T06:58:57;84.05;;;26.25;;
23394;SDS011;11870;53.084;18.206;2024-01-10T07:01:24;75.38;;;24.85;;
23394;SDS011;11870;53.084;18.206;2024-01-10T07:03:50;86.03;;;26.80;;
23394;SDS011;11870;53.084;18.206;2024-01-10T07:06:17;75.97;;;25.25;;
23394;SDS011;11870;53.084;18.206;2024-01-10T07:08:43;81.07;;;25.73;;
23394;SDS011;11870;53.084;18.206;2024-01-10T07:11:10;80.53;;;23.85;;
23394;SDS011;11870;53.084;18.206;2024-01-10T07:13:40;77.82;;;24.00;;
23394;SDS011;11870;53.084;18.206;2024-01-10T07:16:07;78.57;;;24.02;;
23394;SDS011;11870;53.084;18.206;2024-01-10T07:18:33;66.70;;;23.23;;
23394;SDS011;11870;53.084;18.206;2024-01-10T07:20:59;71.35;;;23.98;;
23394;SDS011;11870;53.084;18.206;2024-01-10T07:23:25;70.15;;;23.05;;
23394;SDS011;11870;53.084;18.206;2024-01-10T07:25:52;67.03;;;22.95;;
23394;SDS011;11870;53.084;18.206;2024-01-10T07:28:18;69.50;;;22.23;;
23394;SDS011;11870;53.084;18.206;2024-01-10T07:30:45;65.78;;;21.95;;
23394;SDS011;11870;53.084;18.206;2024-01-10T07:33:11;67.55;;;22.80;;
23394;SDS011;11870;53.084;18.206;2024-01-10T07:35:38;69.32;;;22.25;;
23394;SDS011;11870;53.084;18.206;2024-01-10T07:38:05;86.50;;;21.83;;
23394;SDS011;11870;53.084;18.206;2024-01-10T07:40:35;59.63;;;20.98;;
23394;SDS011;11870;53.084;18.206;2024-01-10T07:43:01;65.75;;;21.15;;
23394;SDS011;11870;53.084;18.206;2024-01-10T07:45:28;58.72;;;21.02;;
23394;SDS011;11870;53.084;18.206;2024-01-10T07:47:54;60.92;;;21.63;;
23394;SDS011;11870;53.084;18.206;2024-01-10T07:50:20;59.38;;;20.55;;
23394;SDS011;11870;53.084;18.206;2024-01-10T07:52:46;59.67;;;20.15;;
23394;SDS011;11870;53.084;18.206;2024-01-10T07:55:12;60.10;;;20.92;;
23394;SDS011;11870;53.084;18.206;2024-01-10T07:57:38;61.92;;;21.00;;
23394;SDS011;11870;53.084;18.206;2024-01-10T08:00:05;56.03;;;19.45;;
23394;SDS011;11870;53.084;18.206;2024-01-10T08:02:35;59.65;;;19.90;;
23394;SDS011;11870;53.084;18.206;2024-01-10T08:05:02;60.28;;;19.88;;
23394;SDS011;11870;53.084;18.206;2024-01-10T08:07:34;56.53;;;19.65;;
23394;SDS011;11870;53.084;18.206;2024-01-10T08:10:06;63.53;;;20.38;;
23394;SDS011;11870;53.084;18.206;2024-01-10T08:12:33;60.97;;;19.90;;
23394;SDS011;11870;53.084;18.206;2024-01-10T08:14:59;59.25;;;21.33;;
23394;SDS011;11870;53.084;18.206;2024-01-10T08:17:25;60.65;;;20.85;;
23394;SDS011;11870;53.084;18.206;2024-01-10T08:19:52;60.45;;;20.48;;
23394;SDS011;11870;53.084;18.206;2024-01-10T08:22:17;56.03;;;20.67;;
23394;SDS011;11870;53.084;18.206;2024-01-10T08:24:45;53.05;;;18.67;;
23394;SDS011;11870;53.084;18.206;2024-01-10T08:27:11;61.58;;;21.27;;
23394;SDS011;11870;53.084;18.206;2024-01-10T08:29:38;55.90;;;20.20;;
23394;SDS011;11870;53.084;18.206;2024-01-10T08:32:04;54.65;;;20.30;;
23394;SDS011;11870;53.084;18.206;2024-01-10T08:34:30;61.20;;;21.02;;
23394;SDS011;11870;53.084;18.206;2024-01-10T08:36:56;57.63;;;20.38;;
23394;SDS011;11870;53.084;18.206;2024-01-10T08:39:22;57.50;;;22.40;;
23394;SDS011;11870;53.084;18.206;2024-01-10T08:41:49;62.85;;;22.88;;
23394;SDS011;11870;53.084;18.206;2024-01-10T08:44:15;58.55;;;23.75;;
23394;SDS011;11870;53.084;18.206;2024-01-10T08:46:41;60.15;;;23.55;;
23394;SDS011;11870;53.084;18.206;2024-01-10T08:49:07;62.05;;;23.35;;
23394;SDS011;11870;53.084;18.206;2024-01-10T08:51:33;63.47;;;23.50;;
23394;SDS011;11870;53.084;18.206;2024-01-10T08:53:59;55.50;;;21.90;;
23394;SDS011;11870;53.084;18.206;2024-01-10T08:56:26;58.30;;;22.67;;
23394;SDS011;11870;53.084;18.206;2024-01-10T08:58:52;58.10;;;23.25;;
23394;SDS011;11870;53.084;18.206;2024-01-10T09:01:18;54.17;;;22.45;;
23394;SDS011;11870;53.084;18.206;2024-01-10T09:03:45;59.25;;;22.48;;
23394;SDS011;11870;53.084;18.206;2024-01-10T09:06:11;59.63;;;21.45;;
23394;SDS011;11870;53.084;18.206;2024-01-10T09:08:38;56.88;;;22.00;;
23394;SDS011;11870;53.084;18.206;2024-01-10T09:11:04;51.33;;;21.80;;
23394;SDS011;11870;53.084;18.206;2024-01-10T09:13:34;54.00;;;22.55;;
23394;SDS011;11870;53.084;18.206;2024-01-10T09:16:03;50.42;;;21.65;;
23394;SDS011;11870;53.084;18.206;2024-01-10T09:18:30;51.30;;;21.33;;
23394;SDS011;11870;53.084;18.206;2024-01-10T09:20:55;53.63;;;23.67;;
23394;SDS011;11870;53.084;18.206;2024-01-10T09:23:21;56.65;;;22.77;;
23394;SDS011;11870;53.084;18.206;2024-01-10T09:25:47;54.03;;;22.77;;
23394;SDS011;11870;53.084;18.206;2024-01-10T09:28:14;53.47;;;21.48;;
23394;SDS011;11870;53.084;18.206;2024-01-10T09:30:40;54.97;;;20.95;;
23394;SDS011;11870;53.084;18.206;2024-01-10T09:33:06;48.40;;;20.98;;
23394;SDS011;11870;53.084;18.206;2024-01-10T09:35:32;54.40;;;20.95;;
23394;SDS011;11870;53.084;18.206;2024-01-10T09:37:58;47.55;;;19.55;;
23394;SDS011;11870;53.084;18.206;2024-01-10T09:40:25;44.78;;;19.58;;
23394;SDS011;11870;53.084;18.206;2024-01-10T09:42:54;40.83;;;17.80;;
23394;SDS011;11870;53.084;18.206;2024-01-10T09:45:20;39.03;;;17.10;;
23394;SDS011;11870;53.084;18.206;2024-01-10T09:47:49;38.90;;;17.13;;
23394;SDS011;11870;53.084;18.206;2024-01-10T09:50:17;38.85;;;15.57;;
23394;SDS011;11870;53.084;18.206;2024-01-10T09:52:51;37.08;;;16.02;;
23394;SDS011;11870;53.084;18.206;2024-01-10T09:55:22;36.97;;;16.02;;
23394;SDS011;11870;53.084;18.206;2024-01-10T09:57:51;32.97;;;13.95;;
23394;SDS011;11870;53.084;18.206;2024-01-10T10:00:17;37.13;;;15.25;;
23394;SDS011;11870;53.084;18.206;2024-01-10T10:02:45;35.00;;;14.60;;
23394;SDS011;11870;53.084;18.206;2024-01-10T10:05:14;45.70;;;20.08;;
23394;SDS011;11870;53.084;18.206;2024-01-10T10:07:43;41.40;;;17.40;;
23394;SDS011;11870;53.084;18.206;2024-01-10T10:10:15;35.83;;;14.57;;
23394;SDS011;11870;53.084;18.206;2024-01-10T10:15:16;26.85;;;12.73;;
23394;SDS011;11870;53.084;18.206;2024-01-10T10:17:47;33.78;;;15.82;;
23394;SDS011;11870;53.084;18.206;2024-01-10T10:20:25;30.67;;;12.65;;
23394;SDS011;11870;53.084;18.206;2024-01-10T10:25:42;30.20;;;14.98;;
23394;SDS011;11870;53.084;18.206;2024-01-10T10:28:09;31.95;;;14.77;;
23394;SDS011;11870;53.084;18.206;2024-01-10T10:30:34;31.90;;;13.02;;
23394;SDS011;11870;53.084;18.206;2024-01-10T10:33:01;31.35;;;13.02;;
23394;SDS011;11870;53.084;18.206;2024-01-10T10:35:28;34.17;;;15.13;;
23394;SDS011;11870;53.084;18.206;2024-01-10T10:37:54;31.63;;;13.63;;
23394;SDS011;11870;53.084;18.206;2024-01-10T10:40:21;29.48;;;13.23;;
23394;SDS011;11870;53.084;18.206;2024-01-10T10:42:56;33.53;;;13.82;;
23394;SDS011;11870;53.084;18.206;2024-01-10T10:45:22;34.05;;;13.93;;
23394;SDS011;11870;53.084;18.206;2024-01-10T10:47:56;39.10;;;14.73;;
23394;SDS011;11870;53.084;18.206;2024-01-10T10:50:23;35.28;;;14.68;;
23394;SDS011;11870;53.084;18.206;2024-01-10T10:52:53;34.78;;;16.00;;
23394;SDS011;11870;53.084;18.206;2024-01-10T10:55:23;36.80;;;16.50;;
23394;SDS011;11870;53.084;18.206;2024-01-10T10:57:52;36.22;;;15.77;;
23394;SDS011;11870;53.084;18.206;2024-01-10T11:00:19;38.65;;;16.98;;
23394;SDS011;11870;53.084;18.206;2024-01-10T11:02:47;40.38;;;15.98;;
23394;SDS011;11870;53.084;18.206;2024-01-10T11:05:14;33.75;;;16.35;;
23394;SDS011;11870;53.084;18.206;2024-01-10T11:07:42;34.38;;;16.65;;
23394;SDS011;11870;53.084;18.206;2024-01-10T11:10:12;41.50;;;18.05;;
23394;SDS011;11870;53.084;18.206;2024-01-10T11:26:14;35.38;;;14.93;;
23394;SDS011;11870;53.084;18.206;2024-01-10T11:28:41;38.60;;;15.18;;
23394;SDS011;11870;53.084;18.206;2024-01-10T11:31:07;34.50;;;14.70;;
23394;SDS011;11870;53.084;18.206;2024-01-10T11:33:35;37.25;;;16.10;;
23394;SDS011;11870;53.084;18.206;2024-01-10T11:38:49;38.67;;;16.50;;
23394;SDS011;11870;53.084;18.206;2024-01-10T11:41:23;39.85;;;15.52;;
23394;SDS011;11870;53.084;18.206;2024-01-10T11:46:53;34.15;;;14.00;;
23394;SDS011;11870;53.084;18.206;2024-01-10T11:49:20;34.22;;;14.63;;
23394;SDS011;11870;53.084;18.206;2024-01-10T11:51:58;36.40;;;14.00;;
23394;SDS011;11870;53.084;18.206;2024-01-10T11:54:39;36.45;;;14.30;;
23394;SDS011;11870;53.084;18.206;2024-01-10T11:59:54;42.47;;;16.77;;
23394;SDS011;11870;53.084;18.206;2024-01-10T12:02:22;43.25;;;16.63;;
23394;SDS011;11870;53.084;18.206;2024-01-10T12:04:50;43.50;;;17.05;;
23394;SDS011;11870;53.084;18.206;2024-01-10T12:07:17;41.03;;;16.48;;
23394;SDS011;11870;53.084;18.206;2024-01-10T12:09:44;50.67;;;18.23;;
23394;SDS011;11870;53.084;18.206;2024-01-10T12:12:13;63.10;;;22.77;;
23394;SDS011;11870;53.084;18.206;2024-01-10T12:14:40;53.60;;;22.42;;
23394;SDS011;11870;53.084;18.206;2024-01-10T12:17:08;50.00;;;20.27;;
23394;SDS011;11870;53.084;18.206;2024-01-10T12:19:35;43.50;;;17.00;;
23394;SDS011;11870;53.084;18.206;2024-01-10T12:22:02;47.80;;;17.58;;
23394;SDS011;11870;53.084;18.206;2024-01-10T12:24:30;38.97;;;16.55;;
23394;SDS011;11870;53.084;18.206;2024-01-10T12:26:57;55.00;;;21.23;;
23394;SDS011;11870;53.084;18.206;2024-01-10T12:29:24;45.90;;;18.75;;
23394;SDS011;11870;53.084;18.206;2024-01-10T12:31:51;46.92;;;19.02;;
23394;SDS011;11870;53.084;18.206;2024-01-10T12:34:19;56.90;;;21.13;;
23394;SDS011;11870;53.084;18.206;2024-01-10T12:36:46;42.63;;;16.33;;
23394;SDS011;11870;53.084;18.206;2024-01-10T12:39:13;36.28;;;16.48;;
23394;SDS011;11870;53.084;18.206;2024-01-10T12:41:40;41.22;;;15.95;;
23394;SDS011;11870;53.084;18.206;2024-01-10T12:44:07;40.60;;;16.50;;
23394;SDS011;11870;53.084;18.206;2024-01-10T12:46:33;42.22;;;15.02;;
23394;SDS011;11870;53.084;18.206;2024-01-10T12:49:01;39.33;;;16.52;;
23394;SDS011;11870;53.084;18.206;2024-01-10T12:51:29;37.35;;;14.15;;
23394;SDS011;11870;53.084;18.206;2024-01-10T12:53:56;38.88;;;14.02;;
23394;SDS011;11870;53.084;18.206;2024-01-10T12:56:24;29.75;;;12.90;;
23394;SDS011;11870;53.084;18.206;2024-01-10T12:58:50;36.38;;;13.90;;
23394;SDS011;11870;53.084;18.206;2024-01-10T13:01:16;41.20;;;16.02;;
23394;SDS011;11870;53.084;18.206;2024-01-10T13:03:44;39.10;;;16.15;;
23394;SDS011;11870;53.084;18.206;2024-01-10T13:06:11;40.55;;;14.93;;
23394;SDS011;11870;53.084;18.206;2024-01-10T13:08:39;34.75;;;14.07;;
23394;SDS011;11870;53.084;18.206;2024-01-10T13:11:06;33.05;;;12.93;;
23394;SDS011;11870;53.084;18.206;2024-01-10T13:13:35;42.72;;;16.42;;
23394;SDS011;11870;53.084;18.206;2024-01-10T13:16:04;37.75;;;14.45;;
23394;SDS011;11870;53.084;18.206;2024-01-10T13:18:35;39.60;;;14.30;;
23394;SDS011;11870;53.084;18.206;2024-01-10T13:21:04;44.63;;;16.42;;
23394;SDS011;11870;53.084;18.206;2024-01-10T13:23:35;42.33;;;15.75;;
23394;SDS011;11870;53.084;18.206;2024-01-10T13:26:05;37.53;;;15.20;;
23394;SDS011;11870;53.084;18.206;2024-01-10T13:28:35;39.45;;;16.63;;
23394;SDS011;11870;53.084;18.206;2024-01-10T13:31:03;43.63;;;17.65;;
23394;SDS011;11870;53.084;18.206;2024-01-10T13:33:31;36.70;;;15.50;;
23394;SDS011;11870;53.084;18.206;2024-01-10T13:36:01;37.28;;;16.05;;
23394;SDS011;11870;53.084;18.206;2024-01-10T13:38:30;41.28;;;16.15;;
23394;SDS011;11870;53.084;18.206;2024-01-10T13:40:58;43.42;;;18.08;;
23394;SDS011;11870;53.084;18.206;2024-01-10T13:43:28;39.80;;;16.33;;
23394;SDS011;11870;53.084;18.206;2024-01-10T13:45:55;57.05;;;21.70;;
23394;SDS011;11870;53.084;18.206;2024-01-10T13:48:32;42.47;;;17.65;;
23394;SDS011;11870;53.084;18.206;2024-01-10T13:51:01;46.85;;;19.77;;
23394;SDS011;11870;53.084;18.206;2024-01-10T13:53:30;55.03;;;24.10;;
23394;SDS011;11870;53.084;18.206;2024-01-10T13:56:05;59.05;;;24.50;;
23394;SDS011;11870;53.084;18.206;2024-01-10T13:58:33;53.33;;;21.45;;
23394;SDS011;11870;53.084;18.206;2024-01-10T14:01:03;50.97;;;21.67;;
23394;SDS011;11870;53.084;18.206;2024-01-10T14:03:33;46.85;;;18.02;;
23394;SDS011;11870;53.084;18.206;2024-01-10T14:06:07;51.85;;;19.92;;
23394;SDS011;11870;53.084;18.206;2024-01-10T14:08:46;45.08;;;18.38;;
23394;SDS011;11870;53.084;18.206;2024-01-10T14:11:18;47.03;;;19.50;;
23394;SDS011;11870;53.084;18.206;2024-01-10T14:13:49;42.60;;;17.23;;
23394;SDS011;11870;53.084;18.206;2024-01-10T14:16:18;47.50;;;18.45;;
23394;SDS011;11870;53.084;18.206;2024-01-10T14:18:51;47.03;;;18.02;;
23394;SDS011;11870;53.084;18.206;2024-01-10T14:21:20;45.78;;;18.38;;
23394;SDS011;11870;53.084;18.206;2024-01-10T14:23:48;46.85;;;18.60;;
23394;SDS011;11870;53.084;18.206;2024-01-10T14:26:15;43.80;;;17.50;;
23394;SDS011;11870;53.084;18.206;2024-01-10T14:28:44;42.53;;;16.27;;
23394;SDS011;11870;53.084;18.206;2024-01-10T14:31:13;37.78;;;15.98;;
23394;SDS011;11870;53.084;18.206;2024-01-10T14:33:47;42.88;;;18.08;;
23394;SDS011;11870;53.084;18.206;2024-01-10T14:36:14;43.80;;;18.35;;
23394;SDS011;11870;53.084;18.206;2024-01-10T14:38:50;43.83;;;18.13;;
23394;SDS011;11870;53.084;18.206;2024-01-10T14:41:19;46.50;;;18.02;;
23394;SDS011;11870;53.084;18.206;2024-01-10T14:43:46;46.92;;;19.67;;